sensor_id;sensor_type;location;lat;lon;timestamp;pressure;altitude;pressure_sealevel;temperature;humidity
51849;BME280;38952;51.090;-1.832;2022-09-01T00:02:09;100907.56;;;15.33;58.59
51849;BME280;38952;51.090;-1.832;2022-09-01T00:04:37;100912.25;;;15.33;58.28
51849;BME280;38952;51.090;-1.832;2022-09-01T00:07:07;100917.44;;;15.40;58.56
51849;BME280;38952;51.090;-1.832;2022-09-01T00:09:33;100905.63;;;15.39;58.83
51849;BME280;38952;51.090;-1.832;2022-09-01T00:12:00;100907.22;;;15.45;58.73
51849;BME280;38952;51.090;-1.832;2022-09-01T00:14:29;100910.84;;;15.41;58.81
51849;BME280;38952;51.090;-1.832;2022-09-01T00:16:56;100906.13;;;15.41;58.59
51849;BME280;38952;51.090;-1.832;2022-09-01T00:19:22;100901.00;;;15.29;58.84
51849;BME280;38952;51.090;-1.832;2022-09-01T00:21:48;100904.06;;;15.23;58.97
51849;BME280;38952;51.090;-1.832;2022-09-01T00:24:16;100906.84;;;15.17;59.57
51849;BME280;38952;51.090;-1.832;2022-09-01T00:26:42;100901.94;;;15.09;59.46
51849;BME280;38952;51.090;-1.832;2022-09-01T00:29:08;100901.94;;;15.09;59.85
51849;BME280;38952;51.090;-1.832;2022-09-01T00:31:35;100894.25;;;15.06;60.26
51849;BME280;38952;51.090;-1.832;2022-09-01T00:34:00;100895.63;;;15.09;60.25
51849;BME280;38952;51.090;-1.832;2022-09-01T00:36:26;100890.41;;;15.02;60.10
51849;BME280;38952;51.090;-1.832;2022-09-01T00:38:55;100892.63;;;15.00;60.50
51849;BME280;38952;51.090;-1.832;2022-09-01T00:41:23;100889.59;;;15.01;60.64
51849;BME280;38952;51.090;-1.832;2022-09-01T00:43:54;100880.72;;;15.10;60.77
51849;BME280;38952;51.090;-1.832;2022-09-01T00:46:23;100893.16;;;15.07;60.95
51849;BME280;38952;51.090;-1.832;2022-09-01T00:49:10;100887.66;;;15.02;60.88
51849;BME280;38952;51.090;-1.832;2022-09-01T00:51:37;100888.28;;;14.94;61.22
51849;BME280;38952;51.090;-1.832;2022-09-01T00:54:06;100879.22;;;14.88;61.79
51849;BME280;38952;51.090;-1.832;2022-09-01T00:56:33;100878.69;;;14.81;61.83
51849;BME280;38952;51.090;-1.832;2022-09-01T00:59:04;100874.81;;;14.82;61.98
51849;BME280;38952;51.090;-1.832;2022-09-01T01:01:31;100881.41;;;14.86;62.46
51849;BME280;38952;51.090;-1.832;2022-09-01T01:03:59;100865.72;;;14.87;62.67
51849;BME280;38952;51.090;-1.832;2022-09-01T01:06:26;100865.72;;;14.87;62.68
51849;BME280;38952;51.090;-1.832;2022-09-01T01:08:55;100856.97;;;14.79;62.99
51849;BME280;38952;51.090;-1.832;2022-09-01T01:11:27;100861.94;;;14.72;63.31
51849;BME280;38952;51.090;-1.832;2022-09-01T01:13:57;100861.13;;;14.72;63.93
51849;BME280;38952;51.090;-1.832;2022-09-01T01:16:26;100856.47;;;14.67;63.52
51849;BME280;38952;51.090;-1.832;2022-09-01T01:18:52;100850.72;;;14.63;63.85
51849;BME280;38952;51.090;-1.832;2022-09-01T01:21:41;100844.91;;;14.60;64.01
51849;BME280;38952;51.090;-1.832;2022-09-01T01:24:28;100858.69;;;14.65;64.26
51849;BME280;38952;51.090;-1.832;2022-09-01T01:26:56;100852.91;;;14.61;64.52
51849;BME280;38952;51.090;-1.832;2022-09-01T01:29:32;100849.31;;;14.56;64.74
51849;BME280;38952;51.090;-1.832;2022-09-01T01:31:58;100847.19;;;14.47;65.10
51849;BME280;38952;51.090;-1.832;2022-09-01T01:34:24;100849.88;;;14.53;65.25
51849;BME280;38952;51.090;-1.832;2022-09-01T01:36:50;100849.88;;;14.63;65.74
51849;BME280;38952;51.090;-1.832;2022-09-01T01:39:22;100847.69;;;14.65;65.35
51849;BME280;38952;51.090;-1.832;2022-09-01T01:41:50;100838.31;;;14.66;65.48
51849;BME280;38952;51.090;-1.832;2022-09-01T01:44:21;100843.47;;;14.78;65.39
51849;BME280;38952;51.090;-1.832;2022-09-01T01:46:51;100845.94;;;14.79;65.26
51849;BME280;38952;51.090;-1.832;2022-09-01T01:49:20;100837.13;;;14.77;65.55
51849;BME280;38952;51.090;-1.832;2022-09-01T01:51:47;100840.41;;;14.84;66.08
51849;BME280;38952;51.090;-1.832;2022-09-01T01:54:14;100848.28;;;15.01;65.73
51849;BME280;38952;51.090;-1.832;2022-09-01T01:56:41;100841.69;;;15.03;65.87
51849;BME280;38952;51.090;-1.832;2022-09-01T01:59:07;100847.41;;;15.11;65.83
51849;BME280;38952;51.090;-1.832;2022-09-01T02:01:36;100842.91;;;15.21;65.30
51849;BME280;38952;51.090;-1.832;2022-09-01T02:04:03;100841.75;;;15.27;65.68
51849;BME280;38952;51.090;-1.832;2022-09-01T02:06:32;100850.00;;;15.32;66.00
51849;BME280;38952;51.090;-1.832;2022-09-01T02:08:58;100835.09;;;15.33;65.81
51849;BME280;38952;51.090;-1.832;2022-09-01T02:11:27;100839.47;;;15.39;65.66
51849;BME280;38952;51.090;-1.832;2022-09-01T02:13:54;100833.91;;;15.44;65.74
51849;BME280;38952;51.090;-1.832;2022-09-01T02:16:22;100845.47;;;15.46;65.72
51849;BME280;38952;51.090;-1.832;2022-09-01T02:18:48;100833.28;;;15.52;66.27
51849;BME280;38952;51.090;-1.832;2022-09-01T02:21:18;100834.38;;;15.57;66.19
51849;BME280;38952;51.090;-1.832;2022-09-01T02:23:47;100826.03;;;15.62;66.03
51849;BME280;38952;51.090;-1.832;2022-09-01T02:26:13;100823.81;;;15.64;66.12
51849;BME280;38952;51.090;-1.832;2022-09-01T02:31:11;100808.50;;;15.52;66.59
51849;BME280;38952;51.090;-1.832;2022-09-01T02:33:38;100818.38;;;15.53;66.66
51849;BME280;38952;51.090;-1.832;2022-09-01T02:36:10;100818.75;;;15.47;66.78
51849;BME280;38952;51.090;-1.832;2022-09-01T02:38:41;100819.03;;;15.45;67.14
51849;BME280;38952;51.090;-1.832;2022-09-01T02:41:09;100798.75;;;15.31;67.08
51849;BME280;38952;51.090;-1.832;2022-09-01T02:43:34;100821.31;;;15.33;67.27
51849;BME280;38952;51.090;-1.832;2022-09-01T02:46:00;100813.06;;;15.33;67.45
51849;BME280;38952;51.090;-1.832;2022-09-01T02:48:32;100807.84;;;15.31;68.11
51849;BME280;38952;51.090;-1.832;2022-09-01T02:51:00;100814.47;;;15.30;67.71
51849;BME280;38952;51.090;-1.832;2022-09-01T02:53:27;100806.41;;;15.39;67.79
51849;BME280;38952;51.090;-1.832;2022-09-01T02:55:53;100805.53;;;15.44;67.79
51849;BME280;38952;51.090;-1.832;2022-09-01T02:58:24;100799.72;;;15.45;68.06
51849;BME280;38952;51.090;-1.832;2022-09-01T03:00:55;100793.38;;;15.45;68.11
51849;BME280;38952;51.090;-1.832;2022-09-01T03:03:20;100788.16;;;15.43;68.12
51849;BME280;38952;51.090;-1.832;2022-09-01T03:05:47;100791.50;;;15.40;68.14
51849;BME280;38952;51.090;-1.832;2022-09-01T03:08:16;100787.44;;;15.32;68.31
51849;BME280;38952;51.090;-1.832;2022-09-01T03:10:43;100789.38;;;15.32;68.80
51849;BME280;38952;51.090;-1.832;2022-09-01T03:13:13;100778.94;;;15.29;68.88
51849;BME280;38952;51.090;-1.832;2022-09-01T03:15:40;100779.50;;;15.26;68.91
51849;BME280;38952;51.090;-1.832;2022-09-01T03:18:08;100772.41;;;15.19;68.81
51849;BME280;38952;51.090;-1.832;2022-09-01T03:20:35;100775.22;;;15.14;69.41
51849;BME280;38952;51.090;-1.832;2022-09-01T03:23:03;100765.31;;;15.08;69.99
51849;BME280;38952;51.090;-1.832;2022-09-01T03:25:32;100768.66;;;15.05;70.00
51849;BME280;38952;51.090;-1.832;2022-09-01T03:27:58;100779.69;;;15.05;70.02
51849;BME280;38952;51.090;-1.832;2022-09-01T03:30:27;100777.56;;;14.97;70.40
51849;BME280;38952;51.090;-1.832;2022-09-01T03:32:55;100775.41;;;14.89;70.28
51849;BME280;38952;51.090;-1.832;2022-09-01T03:35:21;100773.16;;;14.91;70.54
51849;BME280;38952;51.090;-1.832;2022-09-01T03:37:47;100765.47;;;14.93;70.35
51849;BME280;38952;51.090;-1.832;2022-09-01T03:40:13;100769.28;;;14.97;70.52
51849;BME280;38952;51.090;-1.832;2022-09-01T03:42:40;100765.13;;;14.99;70.89
51849;BME280;38952;51.090;-1.832;2022-09-01T03:45:08;100751.63;;;14.98;70.82
51849;BME280;38952;51.090;-1.832;2022-09-01T03:47:42;100756.09;;;14.94;70.96
51849;BME280;38952;51.090;-1.832;2022-09-01T03:50:12;100753.88;;;14.96;70.89
51849;BME280;38952;51.090;-1.832;2022-09-01T03:52:54;100738.72;;;14.98;71.12
51849;BME280;38952;51.090;-1.832;2022-09-01T03:55:29;100746.63;;;15.05;70.79
51849;BME280;38952;51.090;-1.832;2022-09-01T03:58:00;100750.50;;;15.04;71.23
51849;BME280;38952;51.090;-1.832;2022-09-01T04:00:28;100748.84;;;15.03;71.11
51849;BME280;38952;51.090;-1.832;2022-09-01T04:02:56;100752.47;;;14.98;71.22
51849;BME280;38952;51.090;-1.832;2022-09-01T04:05:24;100741.19;;;14.95;71.28
51849;BME280;38952;51.090;-1.832;2022-09-01T04:07:57;100742.84;;;14.96;71.75
51849;BME280;38952;51.090;-1.832;2022-09-01T04:10:25;100733.00;;;14.90;71.89
51849;BME280;38952;51.090;-1.832;2022-09-01T04:12:50;100735.47;;;14.91;72.44
51849;BME280;38952;51.090;-1.832;2022-09-01T04:15:17;100735.13;;;14.98;72.24
51849;BME280;38952;51.090;-1.832;2022-09-01T04:17:46;100734.56;;;15.01;72.35
51849;BME280;38952;51.090;-1.832;2022-09-01T04:20:30;100727.41;;;15.00;72.18
51849;BME280;38952;51.090;-1.832;2022-09-01T04:23:05;100736.69;;;15.09;71.90
51849;BME280;38952;51.090;-1.832;2022-09-01T04:25:38;100736.28;;;15.21;71.83
51849;BME280;38952;51.090;-1.832;2022-09-01T04:28:04;100729.38;;;15.29;71.86
51849;BME280;38952;51.090;-1.832;2022-09-01T04:30:42;100727.13;;;15.31;71.69
51849;BME280;38952;51.090;-1.832;2022-09-01T04:33:08;100736.38;;;15.40;71.52
51849;BME280;38952;51.090;-1.832;2022-09-01T04:35:38;100733.88;;;15.44;71.56
51849;BME280;38952;51.090;-1.832;2022-09-01T04:38:04;100731.94;;;15.44;71.48
51849;BME280;38952;51.090;-1.832;2022-09-01T04:40:38;100732.44;;;15.51;71.21
51849;BME280;38952;51.090;-1.832;2022-09-01T04:43:07;100728.44;;;15.63;71.45
51849;BME280;38952;51.090;-1.832;2022-09-01T04:45:34;100730.78;;;15.75;71.21
51849;BME280;38952;51.090;-1.832;2022-09-01T04:48:04;100720.59;;;15.75;70.72
51849;BME280;38952;51.090;-1.832;2022-09-01T04:50:30;100720.88;;;15.79;71.05
51849;BME280;38952;51.090;-1.832;2022-09-01T04:53:01;100720.59;;;15.75;70.97
51849;BME280;38952;51.090;-1.832;2022-09-01T04:55:29;100715.06;;;15.80;70.97
51849;BME280;38952;51.090;-1.832;2022-09-01T04:57:59;100716.69;;;15.81;70.83
51849;BME280;38952;51.090;-1.832;2022-09-01T05:00:26;100719.97;;;15.83;71.23
51849;BME280;38952;51.090;-1.832;2022-09-01T05:02:58;100715.56;;;15.82;71.09
51849;BME280;38952;51.090;-1.832;2022-09-01T05:05:35;100715.50;;;15.87;70.93
51849;BME280;38952;51.090;-1.832;2022-09-01T05:08:04;100720.34;;;15.96;70.83
51849;BME280;38952;51.090;-1.832;2022-09-01T05:10:29;100723.06;;;16.01;70.49
51849;BME280;38952;51.090;-1.832;2022-09-01T05:12:55;100716.16;;;16.03;70.66
51849;BME280;38952;51.090;-1.832;2022-09-01T05:15:21;100722.47;;;16.04;70.46
51849;BME280;38952;51.090;-1.832;2022-09-01T05:17:47;100716.16;;;16.03;70.58
51849;BME280;38952;51.090;-1.832;2022-09-01T05:20:13;100718.66;;;16.00;70.94
51849;BME280;38952;51.090;-1.832;2022-09-01T05:22:40;100718.91;;;16.03;70.75
51849;BME280;38952;51.090;-1.832;2022-09-01T05:25:07;100714.19;;;16.04;70.78
51849;BME280;38952;51.090;-1.832;2022-09-01T05:27:39;100715.25;;;16.08;70.79
51849;BME280;38952;51.090;-1.832;2022-09-01T05:30:06;100709.75;;;16.08;70.68
51849;BME280;38952;51.090;-1.832;2022-09-01T05:32:36;100715.31;;;16.03;70.62
51849;BME280;38952;51.090;-1.832;2022-09-01T05:35:05;100716.97;;;16.04;71.07
51849;BME280;38952;51.090;-1.832;2022-09-01T05:37:34;100714.16;;;16.09;70.91
51849;BME280;38952;51.090;-1.832;2022-09-01T05:40:06;100714.16;;;16.09;70.84
51849;BME280;38952;51.090;-1.832;2022-09-01T05:42:33;100708.03;;;16.12;70.88
51849;BME280;38952;51.090;-1.832;2022-09-01T05:44:59;100714.31;;;16.18;70.70
51849;BME280;38952;51.090;-1.832;2022-09-01T05:47:26;100713.41;;;16.22;70.57
51849;BME280;38952;51.090;-1.832;2022-09-01T05:49:53;100723.84;;;16.26;70.72
51849;BME280;38952;51.090;-1.832;2022-09-01T05:52:19;100713.28;;;16.33;70.48
51849;BME280;38952;51.090;-1.832;2022-09-01T05:54:49;100709.38;;;16.34;70.19
51849;BME280;38952;51.090;-1.832;2022-09-01T05:57:16;100704.91;;;16.38;70.38
51849;BME280;38952;51.090;-1.832;2022-09-01T05:59:42;100698.78;;;16.41;70.40
51849;BME280;38952;51.090;-1.832;2022-09-01T06:02:07;100697.44;;;16.57;70.23
51849;BME280;38952;51.090;-1.832;2022-09-01T06:04:33;100699.44;;;16.71;70.10
51849;BME280;38952;51.090;-1.832;2022-09-01T06:07:00;100693.66;;;16.86;69.46
51849;BME280;38952;51.090;-1.832;2022-09-01T06:09:26;100696.88;;;16.93;68.67
51849;BME280;38952;51.090;-1.832;2022-09-01T06:11:51;100702.22;;;17.04;68.58
51849;BME280;38952;51.090;-1.832;2022-09-01T06:14:21;100703.19;;;17.13;68.39
51849;BME280;38952;51.090;-1.832;2022-09-01T06:16:46;100703.63;;;17.20;67.92
51849;BME280;38952;51.090;-1.832;2022-09-01T06:19:12;100703.50;;;17.25;68.66
51849;BME280;38952;51.090;-1.832;2022-09-01T06:21:38;100696.56;;;17.28;68.01
51849;BME280;38952;51.090;-1.832;2022-09-01T06:24:04;100693.91;;;17.37;68.31
51849;BME280;38952;51.090;-1.832;2022-09-01T06:26:33;100700.34;;;17.46;68.06
51849;BME280;38952;51.090;-1.832;2022-09-01T06:29:02;100700.78;;;17.53;67.59
51849;BME280;38952;51.090;-1.832;2022-09-01T06:31:30;100701.81;;;17.71;66.91
51849;BME280;38952;51.090;-1.832;2022-09-01T06:34:02;100699.75;;;17.77;66.61
51849;BME280;38952;51.090;-1.832;2022-09-01T06:36:30;100700.16;;;17.84;66.23
51849;BME280;38952;51.090;-1.832;2022-09-01T06:38:58;100694.44;;;17.94;66.18
51849;BME280;38952;51.090;-1.832;2022-09-01T06:41:27;100702.91;;;18.12;65.68
51849;BME280;38952;51.090;-1.832;2022-09-01T06:43:53;100713.66;;;18.41;65.63
51849;BME280;38952;51.090;-1.832;2022-09-01T06:46:21;100706.78;;;18.61;64.92
51849;BME280;38952;51.090;-1.832;2022-09-01T06:48:48;100710.78;;;18.69;64.53
51849;BME280;38952;51.090;-1.832;2022-09-01T06:51:17;100708.50;;;18.71;64.05
51849;BME280;38952;51.090;-1.832;2022-09-01T06:53:46;100706.22;;;18.73;64.32
51849;BME280;38952;51.090;-1.832;2022-09-01T06:56:16;100717.19;;;18.78;63.93
51849;BME280;38952;51.090;-1.832;2022-09-01T06:58:43;100706.50;;;18.86;64.10
51849;BME280;38952;51.090;-1.832;2022-09-01T07:01:13;100712.25;;;18.89;63.79
51849;BME280;38952;51.090;-1.832;2022-09-01T07:03:43;100708.66;;;18.89;63.55
51849;BME280;38952;51.090;-1.832;2022-09-01T07:06:09;100719.59;;;18.94;63.70
51849;BME280;38952;51.090;-1.832;2022-09-01T07:08:36;100712.19;;;19.03;63.38
51849;BME280;38952;51.090;-1.832;2022-09-01T07:11:07;100716.19;;;19.19;62.86
51849;BME280;38952;51.090;-1.832;2022-09-01T07:13:34;100719.38;;;19.35;62.54
51849;BME280;38952;51.090;-1.832;2022-09-01T07:16:01;100716.66;;;19.44;62.41
51849;BME280;38952;51.090;-1.832;2022-09-01T07:18:29;100711.38;;;19.34;62.18
51849;BME280;38952;51.090;-1.832;2022-09-01T07:20:55;100714.47;;;19.32;62.46
51849;BME280;38952;51.090;-1.832;2022-09-01T07:23:21;100719.81;;;19.29;62.54
51849;BME280;38952;51.090;-1.832;2022-09-01T07:25:50;100715.91;;;19.30;62.50
51849;BME280;38952;51.090;-1.832;2022-09-01T07:28:21;100718.88;;;19.33;62.39
51849;BME280;38952;51.090;-1.832;2022-09-01T07:30:50;100706.84;;;19.38;62.01
51849;BME280;38952;51.090;-1.832;2022-09-01T07:33:19;100710.28;;;19.44;61.76
51849;BME280;38952;51.090;-1.832;2022-09-01T07:35:48;100710.78;;;19.46;61.62
51849;BME280;38952;51.090;-1.832;2022-09-01T07:38:14;100709.00;;;19.50;61.83
51849;BME280;38952;51.090;-1.832;2022-09-01T07:40:44;100705.78;;;19.57;61.35
51849;BME280;38952;51.090;-1.832;2022-09-01T07:43:24;100709.91;;;19.77;60.93
51849;BME280;38952;51.090;-1.832;2022-09-01T07:45:52;100701.38;;;20.04;60.41
51849;BME280;38952;51.090;-1.832;2022-09-01T07:48:21;100707.63;;;20.28;59.56
51849;BME280;38952;51.090;-1.832;2022-09-01T07:50:49;100702.72;;;20.33;59.34
51849;BME280;38952;51.090;-1.832;2022-09-01T07:53:19;100705.69;;;20.28;59.25
51849;BME280;38952;51.090;-1.832;2022-09-01T07:55:48;100703.84;;;20.15;59.49
51849;BME280;38952;51.090;-1.832;2022-09-01T07:58:16;100717.75;;;20.32;59.33
51849;BME280;38952;51.090;-1.832;2022-09-01T08:00:43;100715.81;;;20.42;59.30
51849;BME280;38952;51.090;-1.832;2022-09-01T08:03:11;100714.66;;;20.60;58.89
51849;BME280;38952;51.090;-1.832;2022-09-01T08:05:37;100708.63;;;20.75;58.30
51849;BME280;38952;51.090;-1.832;2022-09-01T08:08:03;100713.06;;;20.77;57.86
51849;BME280;38952;51.090;-1.832;2022-09-01T08:10:29;100710.09;;;20.73;58.05
51849;BME280;38952;51.090;-1.832;2022-09-01T08:12:55;100707.97;;;20.79;57.95
51849;BME280;38952;51.090;-1.832;2022-09-01T08:15:21;100717.44;;;20.95;58.21
51849;BME280;38952;51.090;-1.832;2022-09-01T08:17:46;100708.53;;;21.28;57.14
51849;BME280;38952;51.090;-1.832;2022-09-01T08:20:12;100711.94;;;21.51;56.29
51849;BME280;38952;51.090;-1.832;2022-09-01T08:22:37;100710.47;;;21.54;55.81
51849;BME280;38952;51.090;-1.832;2022-09-01T08:25:08;100703.25;;;21.53;55.82
51849;BME280;38952;51.090;-1.832;2022-09-01T08:27:36;100707.47;;;21.59;55.97
51849;BME280;38952;51.090;-1.832;2022-09-01T08:30:05;100709.75;;;21.66;55.88
51849;BME280;38952;51.090;-1.832;2022-09-01T08:32:32;100718.06;;;21.74;55.48
51849;BME280;38952;51.090;-1.832;2022-09-01T08:34:59;100713.53;;;21.91;55.53
51849;BME280;38952;51.090;-1.832;2022-09-01T08:37:26;100710.59;;;22.17;54.55
51849;BME280;38952;51.090;-1.832;2022-09-01T08:39:51;100712.97;;;22.91;53.72
51849;BME280;38952;51.090;-1.832;2022-09-01T08:44:59;100715.72;;;23.45;52.21
51849;BME280;38952;51.090;-1.832;2022-09-01T08:47:27;100708.53;;;23.11;52.14
51849;BME280;38952;51.090;-1.832;2022-09-01T08:49:53;100705.44;;;22.91;52.71
51849;BME280;38952;51.090;-1.832;2022-09-01T08:52:30;100701.88;;;23.03;52.99
51849;BME280;38952;51.090;-1.832;2022-09-01T08:57:31;100697.84;;;23.13;52.33
51849;BME280;38952;51.090;-1.832;2022-09-01T08:59:57;100701.63;;;23.29;52.01
51849;BME280;38952;51.090;-1.832;2022-09-01T09:08:50;100691.84;;;25.19;48.27
51849;BME280;38952;51.090;-1.832;2022-09-01T09:16:53;100694.72;;;27.20;43.15
51849;BME280;38952;51.090;-1.832;2022-09-01T09:19:29;100687.84;;;26.94;42.76
51849;BME280;38952;51.090;-1.832;2022-09-01T09:21:58;100687.09;;;26.97;42.70
51849;BME280;38952;51.090;-1.832;2022-09-01T09:27:31;100688.19;;;26.70;43.16
51849;BME280;38952;51.090;-1.832;2022-09-01T09:29:58;100685.94;;;26.59;42.45
51849;BME280;38952;51.090;-1.832;2022-09-01T09:32:42;100691.94;;;26.22;42.77
51849;BME280;38952;51.090;-1.832;2022-09-01T09:37:49;100681.81;;;25.82;43.83
51849;BME280;38952;51.090;-1.832;2022-09-01T09:40:20;100673.84;;;25.84;43.27
51849;BME280;38952;51.090;-1.832;2022-09-01T09:45:25;100674.34;;;26.41;42.59
51849;BME280;38952;51.090;-1.832;2022-09-01T09:47:52;100672.06;;;26.47;42.09
51849;BME280;38952;51.090;-1.832;2022-09-01T09:50:28;100672.19;;;26.54;42.00
51849;BME280;38952;51.090;-1.832;2022-09-01T09:56:00;100666.16;;;26.52;40.98
51849;BME280;38952;51.090;-1.832;2022-09-01T09:58:34;100660.97;;;26.54;41.07
51849;BME280;38952;51.090;-1.832;2022-09-01T10:01:09;100669.63;;;26.65;40.87
51849;BME280;38952;51.090;-1.832;2022-09-01T10:03:48;100668.97;;;26.72;40.21
51849;BME280;38952;51.090;-1.832;2022-09-01T10:06:34;100657.16;;;26.62;40.11
51849;BME280;38952;51.090;-1.832;2022-09-01T10:09:03;100670.22;;;26.55;40.51
51849;BME280;38952;51.090;-1.832;2022-09-01T10:11:37;100674.13;;;26.50;40.37
51849;BME280;38952;51.090;-1.832;2022-09-01T10:14:11;100671.19;;;26.62;40.36
51849;BME280;38952;51.090;-1.832;2022-09-01T10:16:39;100665.28;;;26.68;39.88
51849;BME280;38952;51.090;-1.832;2022-09-01T10:19:11;100655.53;;;26.42;39.43
51849;BME280;38952;51.090;-1.832;2022-09-01T10:21:39;100658.53;;;25.98;39.99
51849;BME280;38952;51.090;-1.832;2022-09-01T10:24:25;100663.69;;;25.76;40.76
51849;BME280;38952;51.090;-1.832;2022-09-01T10:26:56;100646.53;;;25.61;41.22
51849;BME280;38952;51.090;-1.832;2022-09-01T10:29:33;100645.81;;;25.65;41.16
51849;BME280;38952;51.090;-1.832;2022-09-01T10:32:02;100649.41;;;25.49;41.52
51849;BME280;38952;51.090;-1.832;2022-09-01T10:34:34;100647.31;;;25.14;41.19
51849;BME280;38952;51.090;-1.832;2022-09-01T10:37:01;100654.09;;;24.69;42.45
51849;BME280;38952;51.090;-1.832;2022-09-01T10:39:27;100648.78;;;24.23;43.35
51849;BME280;38952;51.090;-1.832;2022-09-01T10:41:57;100656.91;;;23.87;44.05
51849;BME280;38952;51.090;-1.832;2022-09-01T10:44:31;100655.72;;;23.76;45.11
51849;BME280;38952;51.090;-1.832;2022-09-01T10:47:10;100656.41;;;23.61;45.82
51849;BME280;38952;51.090;-1.832;2022-09-01T10:52:02;100649.75;;;23.65;45.44
51849;BME280;38952;51.090;-1.832;2022-09-01T10:57:35;100645.06;;;24.19;44.94
51849;BME280;38952;51.090;-1.832;2022-09-01T11:13:50;100632.59;;;24.85;43.32
51849;BME280;38952;51.090;-1.832;2022-09-01T11:16:38;100630.97;;;25.64;42.92
51849;BME280;38952;51.090;-1.832;2022-09-01T11:21:46;100642.09;;;26.51;39.53
51849;BME280;38952;51.090;-1.832;2022-09-01T11:28:12;100632.91;;;25.60;41.81
51849;BME280;38952;51.090;-1.832;2022-09-01T11:30:21;100628.59;;;25.47;42.42
51849;BME280;38952;51.090;-1.832;2022-09-01T11:32:51;100628.16;;;25.64;41.83
51849;BME280;38952;51.090;-1.832;2022-09-01T11:35:24;100627.25;;;25.76;41.76
51849;BME280;38952;51.090;-1.832;2022-09-01T11:37:54;100625.50;;;25.87;41.76
51849;BME280;38952;51.090;-1.832;2022-09-01T11:40:26;100627.25;;;25.76;41.99
51849;BME280;38952;51.090;-1.832;2022-09-01T11:42:54;100614.59;;;25.82;41.73
51849;BME280;38952;51.090;-1.832;2022-09-01T11:45:26;100620.88;;;25.59;41.10
51849;BME280;38952;51.090;-1.832;2022-09-01T11:48:13;100621.81;;;25.32;42.32
51849;BME280;38952;51.090;-1.832;2022-09-01T11:50:40;100621.50;;;25.21;42.62
51849;BME280;38952;51.090;-1.832;2022-09-01T11:53:12;100629.72;;;25.30;42.09
51849;BME280;38952;51.090;-1.832;2022-09-01T11:55:43;100624.72;;;25.71;41.39
51849;BME280;38952;51.090;-1.832;2022-09-01T11:58:28;100628.66;;;26.60;40.69
51849;BME280;38952;51.090;-1.832;2022-09-01T12:01:17;100623.66;;;29.29;36.55
51849;BME280;38952;51.090;-1.832;2022-09-01T12:03:45;100619.38;;;29.46;35.72
51849;BME280;38952;51.090;-1.832;2022-09-01T12:06:18;100622.53;;;29.96;33.79
51849;BME280;38952;51.090;-1.832;2022-09-01T12:08:52;100616.28;;;29.13;35.23
51849;BME280;38952;51.090;-1.832;2022-09-01T12:11:18;100626.75;;;28.11;36.29
51849;BME280;38952;51.090;-1.832;2022-09-01T12:14:00;100612.41;;;26.89;37.88
51849;BME280;38952;51.090;-1.832;2022-09-01T12:16:27;100631.19;;;26.07;39.11
51849;BME280;38952;51.090;-1.832;2022-09-01T12:18:55;100615.34;;;25.79;40.72
51849;BME280;38952;51.090;-1.832;2022-09-01T12:23:51;100618.94;;;26.15;40.27
51849;BME280;38952;51.090;-1.832;2022-09-01T12:26:21;100623.16;;;26.05;40.33
51849;BME280;38952;51.090;-1.832;2022-09-01T12:28:47;100625.50;;;25.87;40.35
51849;BME280;38952;51.090;-1.832;2022-09-01T12:31:20;100624.31;;;25.69;40.25
51849;BME280;38952;51.090;-1.832;2022-09-01T12:33:47;100624.56;;;25.64;40.13
51849;BME280;38952;51.090;-1.832;2022-09-01T12:36:31;100620.38;;;25.38;40.98
51849;BME280;38952;51.090;-1.832;2022-09-01T12:41:45;100611.81;;;25.31;41.23
51849;BME280;38952;51.090;-1.832;2022-09-01T12:44:32;100617.44;;;25.18;41.38
51849;BME280;38952;51.090;-1.832;2022-09-01T12:47:02;100613.13;;;25.05;41.47
51849;BME280;38952;51.090;-1.832;2022-09-01T12:49:44;100615.38;;;25.15;41.68
51849;BME280;38952;51.090;-1.832;2022-09-01T12:54:35;100620.25;;;26.02;39.93
51849;BME280;38952;51.090;-1.832;2022-09-01T12:57:01;100613.47;;;26.61;39.13
51849;BME280;38952;51.090;-1.832;2022-09-01T12:59:27;100610.59;;;27.24;38.08
51849;BME280;38952;51.090;-1.832;2022-09-01T13:01:53;100609.72;;;27.69;36.52
51849;BME280;38952;51.090;-1.832;2022-09-01T13:04:25;100602.47;;;28.26;36.22
51849;BME280;38952;51.090;-1.832;2022-09-01T13:07:02;100607.56;;;29.29;34.40
51849;BME280;38952;51.090;-1.832;2022-09-01T13:09:28;100608.81;;;29.91;33.00
51849;BME280;38952;51.090;-1.832;2022-09-01T13:12:14;100600.28;;;30.75;32.66
51849;BME280;38952;51.090;-1.832;2022-09-01T13:14:40;100600.31;;;30.83;31.92
51849;BME280;38952;51.090;-1.832;2022-09-01T13:17:05;100597.06;;;30.95;31.61
51849;BME280;38952;51.090;-1.832;2022-09-01T13:19:31;100595.03;;;30.70;32.15
51849;BME280;38952;51.090;-1.832;2022-09-01T13:21:56;100585.19;;;30.21;31.66
51849;BME280;38952;51.090;-1.832;2022-09-01T13:24:22;100582.28;;;29.99;32.44
51849;BME280;38952;51.090;-1.832;2022-09-01T13:26:47;100580.91;;;30.63;31.45
51849;BME280;38952;51.090;-1.832;2022-09-01T13:29:19;100584.72;;;30.04;32.68
51849;BME280;38952;51.090;-1.832;2022-09-01T13:31:45;100567.59;;;29.68;33.21
51849;BME280;38952;51.090;-1.832;2022-09-01T13:34:11;100580.09;;;30.55;32.25
51849;BME280;38952;51.090;-1.832;2022-09-01T13:36:36;100573.69;;;31.59;30.41
51849;BME280;38952;51.090;-1.832;2022-09-01T13:39:02;100556.34;;;30.96;30.68
51849;BME280;38952;51.090;-1.832;2022-09-01T13:41:27;100562.97;;;30.05;32.16
51849;BME280;38952;51.090;-1.832;2022-09-01T13:43:53;100569.72;;;29.23;33.24
51849;BME280;38952;51.090;-1.832;2022-09-01T13:46:18;100564.84;;;28.75;33.97
51849;BME280;38952;51.090;-1.832;2022-09-01T13:48:44;100556.19;;;28.53;35.04
51849;BME280;38952;51.090;-1.832;2022-09-01T13:51:10;100561.59;;;28.35;34.72
51849;BME280;38952;51.090;-1.832;2022-09-01T13:53:35;100558.25;;;28.23;35.00
51849;BME280;38952;51.090;-1.832;2022-09-01T13:56:01;100549.50;;;28.31;35.17